Time;durP1;ratioP1;P1;durP2;ratioP2;P2;SDS_P1;SDS_P2;PMS_P1;PMS_P2;Temp;Humidity;BMP_temperature;BMP_pressure;BME280_temperature;BME280_humidity;BME280_pressure;Samples;Min_cycle;Max_cycle;Signal;HPM_P1;HPM_P2
2022/04/14 00:04:47;;;;;;;7.20;5.25;;;;;;;;;;10265480;28;20072;-66
2022/04/14 00:09:45;;;;;;;10.93;5.30;;;;;;;;;;10266677;28;20075;-65
2022/04/14 00:14:44;;;;;;;5.75;4.68;;;;;;;;;;10265763;28;20092;-66
2022/04/14 00:19:42;;;;;;;6.45;4.97;;;;;;;;;;10265986;28;20079;-66
2022/04/14 00:24:42;;;;;;;9.90;4.78;;;;;;;;;;10273775;28;20068;-66
2022/04/14 00:29:40;;;;;;;8.70;5.15;;;;;;;;;;10266641;28;20517;-66
2022/04/14 00:34:38;;;;;;;6.70;4.55;;;;;;;;;;10265121;28;20087;-66
2022/04/14 00:39:36;;;;;;;6.18;4.35;;;;;;;;;;10265114;28;20076;-65
2022/04/14 00:44:36;;;;;;;5.82;3.85;;;;;;;;;;10264050;28;20057;-65
2022/04/14 00:49:35;;;;;;;4.43;3.90;;;;;;;;;;10265010;28;20080;-67
2022/04/14 00:54:34;;;;;;;10.07;3.92;;;;;;;;;;10274575;28;20529;-66
2022/04/14 00:59:32;;;;;;;4.50;3.97;;;;;;;;;;10274778;28;20087;-66
2022/04/14 01:04:32;;;;;;;4.80;4.20;;;;;;;;;;10274235;28;20073;-64
2022/04/14 01:09:31;;;;;;;5.63;3.80;;;;;;;;;;10265975;28;20492;-64
2022/04/14 01:14:29;;;;;;;5.38;4.55;;;;;;;;;;10277539;28;20084;-65
2022/04/14 01:19:28;;;;;;;5.30;4.75;;;;;;;;;;10271470;28;20060;-65
2022/04/14 01:24:28;;;;;;;4.90;4.22;;;;;;;;;;10273864;28;20087;-65
2022/04/14 01:29:27;;;;;;;4.63;4.13;;;;;;;;;;10263839;28;20060;-65
2022/04/14 01:34:26;;;;;;;6.40;4.75;;;;;;;;;;10273391;28;20071;-65
2022/04/14 01:39:24;;;;;;;4.80;4.07;;;;;;;;;;10272647;28;20053;-66
2022/04/14 01:44:24;;;;;;;4.93;4.50;;;;;;;;;;10273436;28;20104;-65
2022/04/14 01:49:22;;;;;;;5.25;4.10;;;;;;;;;;10263764;28;20064;-65
2022/04/14 01:54:20;;;;;;;6.68;4.95;;;;;;;;;;10263618;28;20083;-65
2022/04/14 01:59:19;;;;;;;5.97;4.32;;;;;;;;;;10263224;28;20549;-65
2022/04/14 02:04:18;;;;;;;5.45;4.10;;;;;;;;;;10262865;28;20083;-65
2022/04/14 02:09:17;;;;;;;6.65;4.13;;;;;;;;;;10264271;28;20073;-64
2022/04/14 02:14:15;;;;;;;5.57;4.32;;;;;;;;;;10272412;28;20083;-65
2022/04/14 02:19:13;;;;;;;6.28;4.88;;;;;;;;;;10272685;28;20049;-65
2022/04/14 02:24:13;;;;;;;12.35;4.75;;;;;;;;;;10271911;28;20147;-65
2022/04/14 02:29:11;;;;;;;6.35;4.10;;;;;;;;;;10267113;28;20072;-65
2022/04/14 02:34:09;;;;;;;6.72;4.57;;;;;;;;;;10270677;28;20076;-64
2022/04/14 02:39:09;;;;;;;4.85;4.13;;;;;;;;;;10270310;28;20075;-64
2022/04/14 02:44:09;;;;;;;6.93;4.50;;;;;;;;;;10263989;28;20081;-65
2022/04/14 02:49:07;;;;;;;7.38;5.20;;;;;;;;;;10269705;28;20065;-65
2022/04/14 02:54:05;;;;;;;8.60;4.85;;;;;;;;;;10268665;28;20471;-65
2022/04/14 02:59:04;;;;;;;7.00;4.57;;;;;;;;;;10269487;28;20506;-64
2022/04/14 03:04:03;;;;;;;4.70;4.28;;;;;;;;;;10269625;28;20071;-64
2022/04/14 03:09:02;;;;;;;5.15;4.60;;;;;;;;;;10269107;28;20064;-63
2022/04/14 03:14:01;;;;;;;5.32;4.78;;;;;;;;;;10268799;28;20085;-64
2022/04/14 03:18:59;;;;;;;5.60;5.00;;;;;;;;;;10268579;28;20083;-64
2022/04/14 03:23:59;;;;;;;6.38;5.20;;;;;;;;;;10267345;28;20434;-64
2022/04/14 03:28:57;;;;;;;6.50;5.10;;;;;;;;;;10268220;28;20075;-64
2022/04/14 03:33:55;;;;;;;5.55;5.05;;;;;;;;;;10269901;28;20085;-64
2022/04/14 03:38:54;;;;;;;7.55;5.43;;;;;;;;;;10268499;28;20076;-64
2022/04/14 03:43:53;;;;;;;5.72;5.15;;;;;;;;;;10276605;28;20478;-64
2022/04/14 03:48:51;;;;;;;5.05;4.55;;;;;;;;;;10270536;28;20079;-64
2022/04/14 03:53:50;;;;;;;5.70;5.18;;;;;;;;;;10272849;28;20069;-64
2022/04/14 03:58:48;;;;;;;6.35;5.50;;;;;;;;;;10266232;28;20178;-64
2022/04/14 04:03:48;;;;;;;7.15;5.72;;;;;;;;;;10272674;28;20079;-65
2022/04/14 04:08:46;;;;;;;7.22;5.80;;;;;;;;;;10263479;28;20072;-64
2022/04/14 04:13:44;;;;;;;8.82;6.72;;;;;;;;;;10277852;28;20084;-64
2022/04/14 04:18:42;;;;;;;9.57;5.63;;;;;;;;;;10266307;28;20084;-65
2022/04/14 04:23:42;;;;;;;6.88;5.93;;;;;;;;;;10259577;28;20099;-64
2022/04/14 04:28:40;;;;;;;6.55;5.47;;;;;;;;;;10264901;28;20152;-65
2022/04/14 04:33:42;;;;;;;7.20;6.32;;;;;;;;;;10265309;28;20088;-65
2022/04/14 04:38:42;;;;;;;9.68;5.45;;;;;;;;;;10265488;28;20075;-65
2022/04/14 04:43:40;;;;;;;9.40;5.47;;;;;;;;;;10265111;28;20073;-66
2022/04/14 04:48:38;;;;;;;9.32;6.57;;;;;;;;;;10262525;28;20096;-64
2022/04/14 04:53:36;;;;;;;6.22;5.40;;;;;;;;;;10272980;28;20077;-64
2022/04/14 04:58:36;;;;;;;6.63;5.38;;;;;;;;;;10260564;28;20069;-64
2022/04/14 05:03:34;;;;;;;6.93;5.40;;;;;;;;;;10259556;28;20069;-65
2022/04/14 05:08:33;;;;;;;13.75;5.53;;;;;;;;;;10269084;28;20064;-64
2022/04/14 05:13:39;;;;;;;10.27;6.38;;;;;;;;;;10259123;28;20462;-64
2022/04/14 05:18:39;;;;;;;7.68;5.78;;;;;;;;;;10260629;28;20072;-64
2022/04/14 05:23:37;;;;;;;6.82;6.03;;;;;;;;;;10267969;28;20059;-65
2022/04/14 05:28:35;;;;;;;6.82;6.13;;;;;;;;;;10262063;28;20064;-64
2022/04/14 05:33:35;;;;;;;7.47;5.60;;;;;;;;;;10264864;28;20078;-64
2022/04/14 05:38:33;;;;;;;8.13;6.88;;;;;;;;;;10251891;28;20073;-64
2022/04/14 05:43:31;;;;;;;7.63;6.70;;;;;;;;;;10255088;28;20088;-64
2022/04/14 05:48:30;;;;;;;12.73;8.98;;;;;;;;;;10256367;28;20483;-65
2022/04/14 05:53:30;;;;;;;15.95;6.68;;;;;;;;;;10271480;28;20073;-65
2022/04/14 05:58:29;;;;;;;12.20;8.15;;;;;;;;;;10258255;28;20100;-64
2022/04/14 06:03:27;;;;;;;9.93;7.10;;;;;;;;;;10272021;28;20072;-65
2022/04/14 06:08:25;;;;;;;10.80;6.10;;;;;;;;;;10260654;28;20502;-64
2022/04/14 06:13:25;;;;;;;9.88;7.43;;;;;;;;;;10268151;28;20088;-64
2022/04/14 06:18:23;;;;;;;6.47;5.85;;;;;;;;;;10255995;28;20079;-64
2022/04/14 06:23:21;;;;;;;6.72;6.03;;;;;;;;;;10269072;28;20294;-65
2022/04/14 06:28:20;;;;;;;9.80;8.38;;;;;;;;;;10274262;28;20100;-65
2022/04/14 06:33:20;;;;;;;7.97;5.70;;;;;;;;;;10266309;28;20069;-65
2022/04/14 06:38:19;;;;;;;9.18;5.90;;;;;;;;;;10269181;28;20073;-65
2022/04/14 06:43:18;;;;;;;7.53;5.80;;;;;;;;;;10264588;28;20128;-65
2022/04/14 06:48:16;;;;;;;12.02;6.45;;;;;;;;;;10261974;28;20069;-65
2022/04/14 06:53:16;;;;;;;17.30;5.82;;;;;;;;;;10263523;28;20076;-65
2022/04/14 06:58:14;;;;;;;9.02;6.07;;;;;;;;;;10267356;28;20077;-65
2022/04/14 07:03:13;;;;;;;7.65;5.40;;;;;;;;;;10269150;28;20088;-64
2022/04/14 07:08:11;;;;;;;49.80;37.28;;;;;;;;;;10268496;28;20512;-65
2022/04/14 07:13:10;;;;;;;8.73;5.72;;;;;;;;;;10267888;28;20072;-64
2022/04/14 07:18:09;;;;;;;35.97;8.93;;;;;;;;;;10268425;28;20072;-65
2022/04/14 07:23:07;;;;;;;20.88;8.25;;;;;;;;;;10268207;28;20049;-66
2022/04/14 07:28:07;;;;;;;16.23;6.32;;;;;;;;;;10267424;28;20045;-65
2022/04/14 07:33:06;;;;;;;32.45;9.15;;;;;;;;;;10267416;28;20184;-65
2022/04/14 07:38:05;;;;;;;31.38;9.07;;;;;;;;;;10266244;28;20528;-65
2022/04/14 07:43:03;;;;;;;18.58;8.80;;;;;;;;;;10267792;28;20097;-65
2022/04/14 07:48:03;;;;;;;16.75;7.25;;;;;;;;;;10269695;28;20087;-65
2022/04/14 07:53:03;;;;;;;17.40;9.63;;;;;;;;;;10275500;28;20487;-65
2022/04/14 07:58:06;;;;;;;16.58;9.43;;;;;;;;;;10267052;28;20103;-66
2022/04/14 08:03:06;;;;;;;26.27;11.63;;;;;;;;;;10264405;28;20057;-65
2022/04/14 08:08:08;;;;;;;21.80;8.40;;;;;;;;;;10266424;28;20084;-66
2022/04/14 08:13:07;;;;;;;14.90;8.13;;;;;;;;;;10266749;28;20065;-65
2022/04/14 08:18:06;;;;;;;18.15;8.10;;;;;;;;;;10266371;28;20076;-66
2022/04/14 08:23:04;;;;;;;13.15;7.18;;;;;;;;;;10266354;28;20080;-66
2022/04/14 08:28:05;;;;;;;9.90;5.80;;;;;;;;;;10264829;28;20482;-66
2022/04/14 08:33:05;;;;;;;9.35;5.35;;;;;;;;;;10265776;28;20049;-66
2022/04/14 08:38:06;;;;;;;9.73;4.82;;;;;;;;;;10264943;28;20076;-66
2022/04/14 08:43:07;;;;;;;6.90;4.93;;;;;;;;;;10265173;28;20107;-65
2022/04/14 08:48:06;;;;;;;5.82;3.70;;;;;;;;;;10264687;28;20497;-66
2022/04/14 08:53:05;;;;;;;6.75;4.90;;;;;;;;;;10265226;28;20580;-66
2022/04/14 08:58:03;;;;;;;8.52;5.47;;;;;;;;;;10261398;28;20096;-66
2022/04/14 09:03:04;;;;;;;14.80;6.97;;;;;;;;;;10269907;28;20045;-66
2022/04/14 09:08:03;;;;;;;14.02;9.82;;;;;;;;;;10273793;28;20536;-66
2022/04/14 09:13:01;;;;;;;15.00;7.55;;;;;;;;;;10273168;28;20452;-66
2022/04/14 09:18:00;;;;;;;7.43;5.65;;;;;;;;;;10263191;28;20068;-66
2022/04/14 09:23:18;;;;;;;10.18;6.32;;;;;;;;;;10264124;28;20083;-66
2022/04/14 09:28:17;;;;;;;9.48;5.60;;;;;;;;;;10263672;28;20085;-66
2022/04/14 09:33:16;;;;;;;10.77;6.10;;;;;;;;;;10262464;28;20068;-65
2022/04/14 09:38:48;;;;;;;5.80;3.85;;;;;;;;;;10266511;28;20103;-66
2022/04/14 09:43:53;;;;;;;9.02;4.25;;;;;;;;;;10271123;28;20088;-66
2022/04/14 09:49:03;;;;;;;5.32;3.55;;;;;;;;;;10270967;28;20077;-67
2022/04/14 09:54:06;;;;;;;6.82;4.75;;;;;;;;;;10270987;28;20175;-66
2022/04/14 09:59:06;;;;;;;6.53;4.70;;;;;;;;;;10270659;28;20077;-65
2022/04/14 10:04:05;;;;;;;6.07;4.30;;;;;;;;;;10270342;28;20079;-66
2022/04/14 10:09:03;;;;;;;9.93;3.67;;;;;;;;;;10269668;28;20104;-65
2022/04/14 10:14:12;;;;;;;7.20;4.85;;;;;;;;;;10269155;28;20076;-66
2022/04/14 10:19:10;;;;;;;6.90;4.57;;;;;;;;;;10262973;28;20069;-65
2022/04/14 10:24:09;;;;;;;6.80;4.65;;;;;;;;;;10269447;28;20072;-66
2022/04/14 10:29:14;;;;;;;7.30;4.75;;;;;;;;;;10270192;28;20072;-66
2022/04/14 10:34:15;;;;;;;9.98;6.50;;;;;;;;;;10263178;28;20068;-65
2022/04/14 10:39:14;;;;;;;10.40;4.18;;;;;;;;;;10264275;28;20500;-65
2022/04/14 10:44:14;;;;;;;5.60;3.38;;;;;;;;;;10269684;28;20451;-66
2022/04/14 10:49:13;;;;;;;7.70;5.25;;;;;;;;;;10268458;28;20076;-65
2022/04/14 10:54:12;;;;;;;7.88;4.50;;;;;;;;;;10263662;28;20155;-66
2022/04/14 10:59:11;;;;;;;4.20;3.72;;;;;;;;;;10262190;28;20080;-66
2022/04/14 11:04:24;;;;;;;5.10;4.45;;;;;;;;;;10262945;28;20508;-66
2022/04/14 11:09:41;;;;;;;4.35;3.65;;;;;;;;;;10268943;28;20069;-65
2022/04/14 11:14:44;;;;;;;8.15;3.83;;;;;;;;;;10268976;28;20508;-66
2022/04/14 11:19:44;;;;;;;5.40;4.13;;;;;;;;;;10267439;28;20079;-66
2022/04/14 11:24:43;;;;;;;7.97;4.13;;;;;;;;;;10267296;28;20474;-65
2022/04/14 11:29:46;;;;;;;8.23;5.20;;;;;;;;;;10267364;28;20087;-65
2022/04/14 11:34:46;;;;;;;11.15;6.35;;;;;;;;;;10260410;28;20153;-66
2022/04/14 11:39:44;;;;;;;4.70;4.28;;;;;;;;;;10267658;28;20072;-66
2022/04/14 11:44:42;;;;;;;6.18;4.55;;;;;;;;;;10263447;28;20088;-65
2022/04/14 11:49:40;;;;;;;6.60;3.97;;;;;;;;;;10261876;28;20069;-66
2022/04/14 11:54:40;;;;;;;7.93;4.32;;;;;;;;;;10266694;28;20064;-66
2022/04/14 11:59:40;;;;;;;3.47;3.03;;;;;;;;;;10266134;28;20076;-66
2022/04/14 12:04:39;;;;;;;6.07;3.80;;;;;;;;;;10266758;28;20088;-67
2022/04/14 12:09:38;;;;;;;6.18;3.63;;;;;;;;;;10265911;28;20068;-65
2022/04/14 12:14:41;;;;;;;5.30;3.55;;;;;;;;;;10275540;28;20068;-65
2022/04/14 12:19:41;;;;;;;6.95;3.80;;;;;;;;;;10275587;28;20041;-65
2022/04/14 12:24:39;;;;;;;4.95;3.70;;;;;;;;;;10274556;28;20049;-65
2022/04/14 12:29:43;;;;;;;7.20;4.47;;;;;;;;;;10264090;28;20063;-65
2022/04/14 12:34:42;;;;;;;11.07;4.07;;;;;;;;;;10264641;28;20122;-65
2022/04/14 12:39:56;;;;;;;6.70;4.43;;;;;;;;;;10264296;28;20068;-66
2022/04/14 12:45:01;;;;;;;6.25;3.10;;;;;;;;;;10265130;28;20076;-66
2022/04/14 12:50:00;;;;;;;7.13;4.25;;;;;;;;;;10259209;28;20258;-65
2022/04/14 12:54:59;;;;;;;16.45;4.20;;;;;;;;;;10258622;28;20068;-65
2022/04/14 13:00:05;;;;;;;7.28;3.40;;;;;;;;;;10258194;28;20053;-65
2022/04/14 13:05:08;;;;;;;6.80;4.43;;;;;;;;;;10263713;28;20474;-64
2022/04/14 13:10:07;;;;;;;6.03;3.00;;;;;;;;;;10255793;28;20083;-65
2022/04/14 13:15:09;;;;;;;5.40;3.10;;;;;;;;;;10263868;28;20068;-65
2022/04/14 13:20:09;;;;;;;9.85;4.15;;;;;;;;;;10263998;28;20064;-65
2022/04/14 13:25:07;;;;;;;5.63;3.58;;;;;;;;;;10263855;28;20069;-64
2022/04/14 13:30:08;;;;;;;4.10;3.30;;;;;;;;;;10263514;28;20076;-66
2022/04/14 13:35:07;;;;;;;4.78;3.88;;;;;;;;;;10263930;28;20076;-66
2022/04/14 13:40:06;;;;;;;4.97;3.50;;;;;;;;;;10273115;28;20085;-65
2022/04/14 13:45:07;;;;;;;4.07;3.42;;;;;;;;;;10273470;28;20053;-65
2022/04/14 13:50:07;;;;;;;6.60;3.13;;;;;;;;;;10272830;28;20346;-66
2022/04/14 13:55:07;;;;;;;3.88;3.47;;;;;;;;;;10256615;28;20102;-66
2022/04/14 14:00:06;;;;;;;6.53;3.80;;;;;;;;;;10263183;28;20103;-66
2022/04/14 14:05:05;;;;;;;6.78;4.03;;;;;;;;;;10263439;28;20087;-66
2022/04/14 14:10:05;;;;;;;3.90;3.22;;;;;;;;;;10263093;28;20068;-66
2022/04/14 14:15:04;;;;;;;3.90;2.83;;;;;;;;;;10258000;28;20080;-65
2022/04/14 14:20:02;;;;;;;6.63;5.07;;;;;;;;;;10262685;28;20411;-65
2022/04/14 14:25:00;;;;;;;5.20;3.40;;;;;;;;;;10260240;28;20087;-68
2022/04/14 14:30:00;;;;;;;6.15;3.88;;;;;;;;;;10264120;28;20545;-66
2022/04/14 14:34:59;;;;;;;4.40;3.55;;;;;;;;;;10264267;28;20103;-66
2022/04/14 14:39:58;;;;;;;6.88;6.13;;;;;;;;;;10269848;28;20080;-66
2022/04/14 14:44:56;;;;;;;5.88;3.75;;;;;;;;;;10268971;28;20481;-66
2022/04/14 14:49:56;;;;;;;5.65;4.10;;;;;;;;;;10266243;28;20073;-66
2022/04/14 14:54:54;;;;;;;6.70;3.65;;;;;;;;;;10269478;28;20108;-66
2022/04/14 14:59:53;;;;;;;12.00;5.63;;;;;;;;;;10264489;28;20069;-65
2022/04/14 15:04:54;;;;;;;5.47;3.78;;;;;;;;;;10265834;28;20088;-66
2022/04/14 15:09:54;;;;;;;6.70;4.38;;;;;;;;;;10269491;28;20041;-66
2022/04/14 15:14:53;;;;;;;18.83;6.40;;;;;;;;;;10262434;28;20068;-66
2022/04/14 15:19:51;;;;;;;22.40;16.30;;;;;;;;;;10268296;28;20076;-66
2022/04/14 15:24:49;;;;;;;10.73;5.15;;;;;;;;;;10268534;28;20088;-66
2022/04/14 15:29:51;;;;;;;34.92;15.98;;;;;;;;;;10267793;28;20049;-66
2022/04/14 15:34:50;;;;;;;35.17;18.77;;;;;;;;;;10267255;28;20461;-66
2022/04/14 15:39:48;;;;;;;13.57;7.97;;;;;;;;;;10267694;28;20081;-66
2022/04/14 15:44:46;;;;;;;12.52;5.63;;;;;;;;;;10267461;28;20088;-67
2022/04/14 15:49:46;;;;;;;15.13;9.00;;;;;;;;;;10267476;28;20071;-66
2022/04/14 15:54:44;;;;;;;10.52;7.00;;;;;;;;;;10265750;28;20064;-66
2022/04/14 15:59:43;;;;;;;4.75;3.70;;;;;;;;;;10266165;28;20156;-66
2022/04/14 16:04:42;;;;;;;15.80;10.40;;;;;;;;;;10267509;28;20065;-67
2022/04/14 16:14:59;;;;;;;17.83;7.18;;;;;;;;;;10275967;28;20049;-67
2022/04/14 16:19:58;;;;;;;14.13;6.90;;;;;;;;;;10274670;28;20099;-67
2022/04/14 16:24:58;;;;;;;31.17;22.27;;;;;;;;;;10265371;28;20478;-66
2022/04/14 16:29:56;;;;;;;17.52;10.45;;;;;;;;;;10265768;28;20501;-66
2022/04/14 16:34:55;;;;;;;31.73;23.42;;;;;;;;;;10264494;28;20079;-67
2022/04/14 16:39:53;;;;;;;28.63;14.32;;;;;;;;;;10257660;28;20482;-67
2022/04/14 16:44:53;;;;;;;27.23;14.52;;;;;;;;;;10265111;28;20080;-66
2022/04/14 16:49:52;;;;;;;53.85;33.40;;;;;;;;;;10264957;28;20041;-67
2022/04/14 16:54:51;;;;;;;36.88;24.75;;;;;;;;;;10265064;28;20497;-67
2022/04/14 16:59:51;;;;;;;64.30;23.35;;;;;;;;;;10264696;28;20083;-66
2022/04/14 17:04:50;;;;;;;40.22;18.92;;;;;;;;;;10264802;28;20074;-66
2022/04/14 17:09:49;;;;;;;19.70;12.82;;;;;;;;;;10264386;28;20083;-67
2022/04/14 17:14:48;;;;;;;34.42;23.27;;;;;;;;;;10268416;28;20076;-67
2022/04/14 17:19:47;;;;;;;31.20;21.30;;;;;;;;;;10277904;28;20080;-67
2022/04/14 17:24:47;;;;;;;16.52;13.82;;;;;;;;;;10271636;28;20068;-68
2022/04/14 17:29:45;;;;;;;17.58;10.68;;;;;;;;;;10267406;28;20520;-67
2022/04/14 17:34:43;;;;;;;13.32;10.35;;;;;;;;;;10272903;28;20080;-66
2022/04/14 17:39:45;;;;;;;4.55;3.85;;;;;;;;;;10267170;28;20485;-67
2022/04/14 17:44:45;;;;;;;6.55;3.38;;;;;;;;;;10266657;28;20110;-67
2022/04/14 17:49:43;;;;;;;14.02;6.13;;;;;;;;;;10263206;28;20461;-66
2022/04/14 17:54:41;;;;;;;11.32;3.92;;;;;;;;;;10260034;28;20083;-66
2022/04/14 17:59:39;;;;;;;5.93;4.90;;;;;;;;;;10258554;28;20087;-66
2022/04/14 18:04:40;;;;;;;8.93;4.85;;;;;;;;;;10268901;28;20380;-66
2022/04/14 18:09:38;;;;;;;4.35;2.92;;;;;;;;;;10258767;28;20084;-67
2022/04/14 18:14:37;;;;;;;9.10;3.90;;;;;;;;;;10266842;28;20148;-66
2022/04/14 18:19:40;;;;;;;4.53;3.97;;;;;;;;;;10265426;28;20513;-66
2022/04/14 18:24:38;;;;;;;5.25;4.43;;;;;;;;;;10276772;28;20211;-67
2022/04/14 18:29:37;;;;;;;5.82;4.00;;;;;;;;;;10265997;28;20057;-66
2022/04/14 18:34:35;;;;;;;4.90;4.30;;;;;;;;;;10269775;28;20076;-66
2022/04/14 18:39:35;;;;;;;6.38;4.70;;;;;;;;;;10260970;28;20072;-66
2022/04/14 18:44:34;;;;;;;6.22;4.28;;;;;;;;;;10276749;28;20072;-66
2022/04/14 18:49:32;;;;;;;5.60;3.70;;;;;;;;;;10265385;28;20073;-66
2022/04/14 18:54:30;;;;;;;12.23;9.88;;;;;;;;;;10254564;28;20065;-66
2022/04/14 18:59:30;;;;;;;7.97;6.13;;;;;;;;;;10268691;28;20088;-66
2022/04/14 19:04:28;;;;;;;4.85;4.22;;;;;;;;;;10274041;28;20072;-66
2022/04/14 19:09:28;;;;;;;3.90;2.90;;;;;;;;;;10268799;28;20057;-67
2022/04/14 19:14:26;;;;;;;4.45;2.75;;;;;;;;;;10263161;28;20068;-66
2022/04/14 19:19:25;;;;;;;4.55;2.40;;;;;;;;;;10274109;28;20071;-66
2022/04/14 19:24:26;;;;;;;4.68;3.08;;;;;;;;;;10260554;28;20095;-66
2022/04/14 19:29:24;;;;;;;5.07;3.78;;;;;;;;;;10251095;28;20471;-66
2022/04/14 19:34:22;;;;;;;5.15;4.10;;;;;;;;;;10271674;28;20478;-66
2022/04/14 19:39:22;;;;;;;5.30;3.88;;;;;;;;;;10257232;28;20506;-66
2022/04/14 19:44:20;;;;;;;4.32;3.47;;;;;;;;;;10273624;28;20083;-66
2022/04/14 19:49:18;;;;;;;4.22;2.83;;;;;;;;;;10273630;28;20080;-66
2022/04/14 19:54:16;;;;;;;4.10;2.33;;;;;;;;;;10272344;28;20072;-66
2022/04/14 19:59:16;;;;;;;4.32;2.88;;;;;;;;;;10260919;28;20073;-66
2022/04/14 20:04:14;;;;;;;3.25;2.35;;;;;;;;;;10267834;28;20497;-65
2022/04/14 20:09:12;;;;;;;7.07;3.30;;;;;;;;;;10268182;28;20087;-65
2022/04/14 20:14:11;;;;;;;3.50;2.95;;;;;;;;;;10269123;28;20071;-66
2022/04/14 20:19:11;;;;;;;5.90;2.22;;;;;;;;;;10261856;28;20072;-66
2022/04/14 20:24:09;;;;;;;4.43;2.80;;;;;;;;;;10270670;28;20087;-66
2022/04/14 20:29:07;;;;;;;9.30;4.93;;;;;;;;;;10266926;28;20473;-65
2022/04/14 20:34:06;;;;;;;5.55;3.20;;;;;;;;;;10269921;28;20075;-66
2022/04/14 20:39:05;;;;;;;9.13;3.15;;;;;;;;;;10266510;28;20076;-66
2022/04/14 20:44:03;;;;;;;5.55;2.95;;;;;;;;;;10265460;28;20080;-66
2022/04/14 20:49:03;;;;;;;4.72;3.55;;;;;;;;;;10268872;28;20041;-66
2022/04/14 20:54:01;;;;;;;8.65;3.50;;;;;;;;;;10268034;28;20048;-66
2022/04/14 20:59:02;;;;;;;6.20;3.42;;;;;;;;;;10258553;28;20099;-67
2022/04/14 21:04:00;;;;;;;7.18;3.58;;;;;;;;;;10263006;28;20079;-65
2022/04/14 21:08:59;;;;;;;4.45;3.10;;;;;;;;;;10258068;28;20068;-66
2022/04/14 21:13:57;;;;;;;3.35;2.97;;;;;;;;;;10262474;28;20467;-67
2022/04/14 21:18:57;;;;;;;4.00;3.38;;;;;;;;;;10262986;28;20124;-66
2022/04/14 21:23:55;;;;;;;5.22;2.85;;;;;;;;;;10262955;28;20524;-66
2022/04/14 21:28:53;;;;;;;3.13;2.53;;;;;;;;;;10263819;28;20497;-66
2022/04/14 21:33:51;;;;;;;5.53;3.13;;;;;;;;;;10263921;28;20490;-66
2022/04/14 21:38:52;;;;;;;6.25;3.55;;;;;;;;;;10263342;28;20080;-66
2022/04/14 21:43:50;;;;;;;5.93;3.72;;;;;;;;;;10263707;28;20087;-66
2022/04/14 21:48:49;;;;;;;4.30;3.03;;;;;;;;;;10263843;28;20447;-65
2022/04/14 21:53:47;;;;;;;7.22;3.80;;;;;;;;;;10263423;28;20068;-66
2022/04/14 21:58:47;;;;;;;5.70;3.60;;;;;;;;;;10263489;28;20072;-66
2022/04/14 22:03:47;;;;;;;4.50;3.10;;;;;;;;;;10263489;28;20057;-65
2022/04/14 22:08:45;;;;;;;8.90;3.28;;;;;;;;;;10262867;28;20048;-65
2022/04/14 22:13:45;;;;;;;4.22;3.10;;;;;;;;;;10260877;28;20072;-66
2022/04/14 22:18:44;;;;;;;4.72;3.08;;;;;;;;;;10262369;28;20076;-66
2022/04/14 22:23:43;;;;;;;4.07;2.72;;;;;;;;;;10263122;28;20429;-66
2022/04/14 22:28:41;;;;;;;4.35;3.03;;;;;;;;;;10263097;28;20075;-65
2022/04/14 22:33:39;;;;;;;3.55;2.60;;;;;;;;;;10263157;28;20461;-66
2022/04/14 22:38:41;;;;;;;4.13;2.80;;;;;;;;;;10262148;28;20057;-65
2022/04/14 22:43:39;;;;;;;5.35;2.85;;;;;;;;;;10249642;28;20077;-65
2022/04/14 22:48:38;;;;;;;4.07;3.35;;;;;;;;;;10268546;28;20567;-66
2022/04/14 22:53:36;;;;;;;5.72;2.58;;;;;;;;;;10269901;28;20076;-66
2022/04/14 22:58:35;;;;;;;2.65;2.00;;;;;;;;;;10260246;28;20088;-66
2022/04/14 23:03:33;;;;;;;3.97;2.70;;;;;;;;;;10269535;28;20338;-65
2022/04/14 23:08:32;;;;;;;5.65;2.55;;;;;;;;;;10268884;28;20094;-66
2022/04/14 23:13:30;;;;;;;6.25;2.72;;;;;;;;;;10269293;28;20072;-65
2022/04/14 23:18:33;;;;;;;5.53;2.97;;;;;;;;;;10268235;28;20069;-65
2022/04/14 23:23:31;;;;;;;5.07;2.75;;;;;;;;;;10266962;28;20080;-66
2022/04/14 23:28:30;;;;;;;5.72;2.35;;;;;;;;;;10268251;28;20083;-66
2022/04/14 23:33:28;;;;;;;2.63;2.22;;;;;;;;;;10268242;28;20080;-66
2022/04/14 23:38:29;;;;;;;5.05;3.10;;;;;;;;;;10268263;28;20076;-65
2022/04/14 23:43:27;;;;;;;2.30;2.00;;;;;;;;;;10267154;28;20080;-65
2022/04/14 23:48:26;;;;;;;4.60;2.60;;;;;;;;;;10271031;28;20223;-66
2022/04/14 23:53:24;;;;;;;2.88;2.20;;;;;;;;;;10267553;28;20497;-66
2022/04/14 23:58:24;;;;;;;5.05;2.97;;;;;;;;;;10265947;28;20106;-66
